x

Virginia Beach 64 Nm East Of Virginia Beach, Va (44014) Wave Buoy

9:50pm - Fri 25th Jul 2014 All times are EDT. -4 hours from GMT.

  • Sig Wave height 2.3ft
  • Peak Period 7s
  • Wind
    7mph
  • Sea Temp 78°f
  • 空気 Temp 76°f
  • Sea Pressure 1017.7mb
  • Virginia Beach 64 Nm East Of Virginia Beach, Va
  • Virginia Beach 64 Nm East Of Virginia Beach, Va

More Historic Weather Station data

Upgrade to MSW Pro to gain access to the past 30 days of data for over 8000 Wavebouys and Weather Stations around the globe.

Join Pro

Comparision Forecast

View Surf forecast
   
Fri 07/25 9:50pm 2.5ft 7s 7
mph
1017.7mb 78f 76f
8:50pm 2.5ft 7s 4 7 mph 1017.5mb 78f 76f
7:50pm 2.5ft 7s 2 4 mph 1017.3mb 78f 76f
6:50pm 2.5ft 7s 4 7 mph 1016.8mb 78f 76f
5:50pm 2.5ft 7s 7 9 mph 1016mb 78f 76f
4:50pm 2.5ft 5s 7 11 mph 1015.9mb 78f 75f
3:50pm 3ft 5s 11 13 mph 1016.3mb 78f 75f
2:50pm 3ft 7s 13 18 mph 1016.5mb 78f 75f
1:50pm 3ft 4s 16 18 mph 1016.7mb 78f 75f
12:50pm 3ft 4s 16 18 mph 1016.6mb 78f 75f
11:50am 3ft 7s 16 18 mph 1016.4mb 78f 76f
10:50am 3ft 8s 16 18 mph 1016mb 78f 76f
9:50am 3ft 7s 13 16 mph 1015.6mb 78f 76f
8:50am 2.5ft 7s 13 16 mph 1015.4mb 78f 77f
7:50am 2.5ft 7s 11 13 mph 1014.6mb 78f 77f
6:50am 2.5ft 7s 13 16 mph 1014mb 78f 76f
5:50am 2.5ft 6s 13 16 mph 1013.5mb 78f 76f
4:50am 3ft 7s 11 13 mph 1013.1mb 78f 76f
3:50am 3.5ft 7s 13 16 mph 1012.7mb 78f 75f
2:50am 3ft 7s 11 13 mph 1012mb 78f 76f
1:50am 3ft 7s 9 11 mph 1010.9mb 78f 75f
12:50am 3.5ft 6s 9 11 mph 1011mb 78f 74f
Thu 07/24 11:50pm 3.5ft 7s 2 4 mph 1012.7mb 78f 74f
10:50pm 3.5ft 7s 11 13 mph 1012.8mb 78f 76f
9:50pm 3ft 7s 4 7 mph 1012.2mb 78f 76f
8:50pm 3ft 6s 4 7 mph 1011.9mb 78f 76f
7:50pm 3ft 7s 4 7 mph 1011.2mb 78f 76f
6:50pm 3ft 7s 4
mph
1010.8mb 78f 77f
5:50pm 3ft 4s 2 4 mph 1010.6mb 79f 77f
4:50pm 3.5ft 7s 2
mph
1010.6mb 78f 77f
3:50pm 3.5ft 6s 2 4 mph 1011mb 78f 76f
2:50pm 3.5ft 6s 7 9 mph 1011.1mb 78f 76f
1:50pm 3.5ft 6s 9 11 mph 1011mb 78f 75f
12:50pm 4.5ft 6s 20 25 mph 1010.1mb 78f 74f
11:50am 4.5ft 6s 13 18 mph 1011mb 79f 78f
10:50am 4.5ft 7s 16 18 mph 1010.7mb 78f 78f
9:50am 4.5ft 6s 13 16 mph 1010.9mb 78f 78f
8:50am 4ft 6s 13 18 mph 1010.7mb 78f 78f
7:50am 4.5ft 7s 13 18 mph 1010.6mb 78f 78f
6:50am 4.5ft 6s 16 18 mph 1010.2mb 78f 78f
5:50am 4ft 6s 18 20 mph 1010mb 78f 78f
4:50am 4ft 6s 16 18 mph 1010.2mb 78f 78f
3:50am 3.5ft 7s 16 18 mph 1010.3mb 78f 79f
2:50am 4ft 7s 16 20 mph 1010.6mb 79f 79f
1:50am 3.5ft 6s 16 20 mph 1011mb 79f 79f
12:50am 3.5ft 6s 13 16 mph 1011.5mb 79f 79f
Wed 07/23 11:50pm 3.5ft 5s 13 16 mph 1011.7mb 78f 79f
10:50pm 3.5ft 5s 13 16 mph 1012.2mb 79f 79f
9:50pm 3.5ft 4s 18 20 mph 1012.5mb 79f 80f
8:50pm 3ft 5s 20 25 mph 1012.4mb 79f 79f
7:50pm 2.5ft 8s 20 25 mph 1011.9mb 79f 79f
6:50pm 2.5ft 5s 18 20 mph 1012.1mb 79f 79f
5:50pm 2.5ft 6s 16 18 mph 1012.8mb 79f 79f
4:50pm 2.5ft 5s 13 16 mph 1013.6mb 80f 78f
3:50pm 2.5ft 6s 9 11 mph 1014.3mb 80f 78f
2:50pm 2.5ft 5s 9
mph
1014.9mb 79f 77f
1:50pm 2.5ft 8s 11 13 mph 1015.3mb 79f 77f
12:50pm 2.5ft 5s 7 9 mph 1015.7mb 79f 77f
11:50am 2.5ft 8s 7 9 mph 1016.3mb 79f 77f
10:50am 2.5ft 5s 9 11 mph 1016.8mb 78f 77f
9:50am 2.5ft 7s 7 9 mph 1016.9mb 78f 77f
8:50am 2.5ft 7s 9
mph
1016.9mb 78f 77f
7:50am 2.5ft 5s 4 7 mph 1016.7mb 78f 77f
6:50am 2.5ft 7s 7 9 mph 1016.4mb 78f 77f
5:50am 2.5ft 7s 11
mph
1016.5mb 78f 77f
4:50am 2.5ft 8s 11 13 mph 1016.4mb 78f 77f
3:50am 2.5ft 5s 11 13 mph 1017.1mb 78f 77f
2:50am 2.5ft 5s 9
mph
1017.4mb 78f 78f
1:50am 2.5ft 9s 7 9 mph 1018.3mb 78f 77f
12:50am 2.5ft 8s 9
mph
1018.6mb 78f 77f
Tue 07/22 11:50pm 2.5ft 8s 11 13 mph 1018.8mb 78f 77f
10:50pm 2.5ft 8s 9 11 mph 1019.1mb 78f 77f
9:50pm 2.5ft 7s 9 11 mph 1019.3mb 78f 77f
8:50pm 2.5ft 7s 7 9 mph 1019.3mb 78f 77f
7:50pm 2.5ft 7s 7
mph
1019.3mb 78f 76f
6:50pm 2.5ft 8s 7
mph
1019.2mb 78f 76f
5:50pm 2.5ft 8s 7 9 mph 1019.3mb 78f 76f
4:50pm 2.5ft 7s 9 11 mph 1019.9mb 78f 76f
3:50pm 2.5ft 7s 11 13 mph 1020.4mb 78f 75f
2:50pm 2.5ft 8s 16
mph
1020.3mb 78f 77f
1:50pm 2.5ft 7s 13 16 mph 1020.7mb 78f 77f
12:50pm 2.5ft 7s 11 13 mph 1021mb 78f 77f
11:50am 2.5ft 8s 11 13 mph 1021.3mb 78f 77f
10:50am 3ft 8s 11 13 mph 1021.2mb 78f 77f
9:50am 2.5ft 8s 11 13 mph 1021.3mb 77f 76f
8:50am 2.5ft 8s 11
mph
1021.5mb 77f 76f
7:50am 2.5ft 8s 9 11 mph 1021.4mb 77f 76f
6:50am 2.5ft 6s 9 11 mph 1020.9mb 77f 76f
5:50am 2.5ft 7s 9 11 mph 1020.5mb 77f 76f
4:50am 2.5ft 7s 9
mph
1020mb 77f 76f
3:50am 2.5ft 8s 7 9 mph 1020.2mb 77f 76f